Time;durP1;ratioP1;P1;durP2;ratioP2;P2;SDS_P1;SDS_P2;PMS_P1;PMS_P2;Temp;Humidity;BMP_temperature;BMP_pressure;BME280_temperature;BME280_humidity;BME280_pressure;Samples;Min_cycle;Max_cycle;Signal;HPM_P1;HPM_P2
2023/09/24 00:00:55;;;;;;;8.60;3.53;;;;;;;;;;6346221;28;20104;-81
2023/09/24 00:04:00;;;;;;;11.82;3.70;;;;;;;;;;6297049;28;20156;-82
2023/09/24 00:07:05;;;;;;;14.38;3.47;;;;;;;;;;6333685;28;20040;-81
2023/09/24 00:10:10;;;;;;;10.95;3.55;;;;;;;;;;6333331;28;20032;-82
2023/09/24 00:13:14;;;;;;;14.45;4.10;;;;;;;;;;6332349;28;20059;-84
2023/09/24 00:16:21;;;;;;;11.40;3.55;;;;;;;;;;6330014;28;20058;-84
2023/09/24 00:19:33;;;;;;;12.38;4.07;;;;;;;;;;6342588;28;20044;-82
2023/09/24 00:22:41;;;;;;;15.43;5.28;;;;;;;;;;6333588;28;20046;-82
2023/09/24 00:25:52;;;;;;;12.70;3.75;;;;;;;;;;6311552;28;20066;-82
2023/09/24 00:28:55;;;;;;;10.38;3.47;;;;;;;;;;6345233;28;20036;-83
2023/09/24 00:31:57;;;;;;;10.82;3.53;;;;;;;;;;6311726;28;20048;-83
2023/09/24 00:35:05;;;;;;;13.25;3.75;;;;;;;;;;6345789;28;20032;-81
2023/09/24 00:38:09;;;;;;;11.25;3.60;;;;;;;;;;6321602;28;20044;-83
2023/09/24 00:41:13;;;;;;;13.65;3.80;;;;;;;;;;6305647;28;20537;-82
2023/09/24 00:44:16;;;;;;;;;;;;;;;;;;6288365;28;20052;-82
2023/09/24 00:47:22;;;;;;;11.82;3.58;;;;;;;;;;6311412;28;19920;-82
2023/09/24 00:50:41;;;;;;;11.02;3.45;;;;;;;;;;6277195;28;20052;-82
2023/09/24 00:54:16;;;;;;;19.17;3.85;;;;;;;;;;6322242;28;20547;-81
2023/09/24 00:57:19;;;;;;;15.00;4.03;;;;;;;;;;6267923;28;20051;-81
2023/09/24 01:00:57;;;;;;;12.77;4.40;;;;;;;;;;6302852;28;20044;-81
2023/09/24 01:04:03;;;;;;;19.38;5.25;;;;;;;;;;6308090;28;20041;-82
2023/09/24 01:07:07;;;;;;;15.15;4.72;;;;;;;;;;6281088;28;20051;-81
2023/09/24 01:10:11;;;;;;;14.32;3.72;;;;;;;;;;6269951;28;20424;-81
2023/09/24 01:13:19;;;;;;;12.88;3.45;;;;;;;;;;6277584;28;20091;-82
2023/09/24 01:16:23;;;;;;;11.80;3.63;;;;;;;;;;6281163;28;20138;-83
2023/09/24 01:19:36;;;;;;;15.15;3.60;;;;;;;;;;6291021;28;21304;-81
2023/09/24 01:22:40;;;;;;;11.68;4.47;;;;;;;;;;6300196;28;20044;-83
2023/09/24 01:25:47;;;;;;;9.98;3.50;;;;;;;;;;6314587;28;20039;-82
2023/09/24 01:28:51;;;;;;;9.07;3.78;;;;;;;;;;6288684;28;20544;-82
2023/09/24 01:31:54;;;;;;;13.82;3.63;;;;;;;;;;6286220;28;20044;-82
2023/09/24 01:34:57;;;;;;;11.23;3.70;;;;;;;;;;6272725;28;20044;-82
2023/09/24 01:38:04;;;;;;;11.10;3.75;;;;;;;;;;6287257;28;20056;-82
2023/09/24 01:41:09;;;;;;;15.95;4.50;;;;;;;;;;6278118;28;20048;-82
2023/09/24 01:44:20;;;;;;;9.32;3.97;;;;;;;;;;6278399;28;20051;-82
2023/09/24 01:47:28;;;;;;;14.63;6.45;;;;;;;;;;6313564;28;20058;-82
2023/09/24 01:50:33;;;;;;;18.73;4.07;;;;;;;;;;6271079;28;20130;-81
2023/09/24 01:53:38;;;;;;;14.77;4.18;;;;;;;;;;6270492;28;20058;-83
2023/09/24 01:56:54;;;;;;;16.13;4.72;;;;;;;;;;6313152;28;20048;-82
2023/09/24 02:00:15;;;;;;;13.98;4.35;;;;;;;;;;6284780;28;20117;-82
2023/09/24 02:03:20;;;;;;;11.15;4.38;;;;;;;;;;6286661;28;20048;-82
2023/09/24 02:06:23;;;;;;;13.32;3.85;;;;;;;;;;6307686;28;20532;-81
2023/09/24 02:09:32;;;;;;;13.95;3.45;;;;;;;;;;6306947;28;20543;-82
2023/09/24 02:12:36;;;;;;;13.07;4.97;;;;;;;;;;6254276;28;20062;-82
2023/09/24 02:15:40;;;;;;;10.80;3.65;;;;;;;;;;6301065;28;20033;-82
2023/09/24 02:18:43;;;;;;;15.82;5.15;;;;;;;;;;6279722;28;20052;-81
2023/09/24 02:21:48;;;;;;;9.60;4.20;;;;;;;;;;6278457;28;20641;-81
2023/09/24 02:24:50;;;;;;;12.48;3.83;;;;;;;;;;6261843;28;20165;-82
2023/09/24 02:28:30;;;;;;;;;;;;;;;;;;6303147;28;20091;-81
2023/09/24 02:31:46;;;;;;;12.32;4.22;;;;;;;;;;6278174;28;19920;-81
2023/09/24 02:34:54;;;;;;;12.13;4.25;;;;;;;;;;6321964;28;20121;-82
2023/09/24 02:38:29;;;;;;;18.85;4.07;;;;;;;;;;6300274;28;20620;-82
2023/09/24 02:41:32;;;;;;;11.73;3.88;;;;;;;;;;6299320;28;20128;-81
2023/09/24 02:44:34;;;;;;;10.60;3.92;;;;;;;;;;6297045;28;20127;-81
2023/09/24 02:47:37;;;;;;;10.52;4.30;;;;;;;;;;6262742;28;20818;-82
2023/09/24 02:50:42;;;;;;;15.98;7.60;;;;;;;;;;6280170;28;20043;-81
2023/09/24 02:53:47;;;;;;;18.00;4.28;;;;;;;;;;6286924;28;20113;-83
2023/09/24 02:56:50;;;;;;;17.52;5.22;;;;;;;;;;6289246;28;20048;-82
2023/09/24 02:59:53;;;;;;;15.30;5.50;;;;;;;;;;6294602;28;20040;-81
2023/09/24 03:02:57;;;;;;;15.45;5.15;;;;;;;;;;6286185;28;20057;-81
2023/09/24 03:06:02;;;;;;;10.85;4.95;;;;;;;;;;6279868;28;20074;-83
2023/09/24 03:09:06;;;;;;;17.65;4.82;;;;;;;;;;6295319;28;20123;-82
2023/09/24 03:12:09;;;;;;;16.30;4.75;;;;;;;;;;6299823;28;20043;-82
2023/09/24 03:15:11;;;;;;;16.85;5.70;;;;;;;;;;6280596;28;20428;-81
2023/09/24 03:18:15;;;;;;;17.85;5.65;;;;;;;;;;6283298;28;20450;-81
2023/09/24 03:21:17;;;;;;;14.00;3.97;;;;;;;;;;6281433;28;20044;-82
2023/09/24 03:24:19;;;;;;;17.33;7.32;;;;;;;;;;6308237;28;20035;-82
2023/09/24 03:27:22;;;;;;;19.27;6.50;;;;;;;;;;6291401;28;20052;-82
2023/09/24 03:30:26;;;;;;;12.00;5.03;;;;;;;;;;6318737;28;20586;-82
2023/09/24 03:33:30;;;;;;;13.32;4.78;;;;;;;;;;6286237;28;20051;-82
2023/09/24 03:36:35;;;;;;;17.80;5.63;;;;;;;;;;6308393;28;20046;-81
2023/09/24 03:39:38;;;;;;;13.73;4.88;;;;;;;;;;6319141;28;20040;-82
2023/09/24 03:42:41;;;;;;;16.80;6.38;;;;;;;;;;6337206;28;20040;-83
2023/09/24 03:45:44;;;;;;;17.23;5.65;;;;;;;;;;6309991;28;20075;-81
2023/09/24 03:48:47;;;;;;;21.10;6.60;;;;;;;;;;6309991;28;20047;-81
2023/09/24 03:51:50;;;;;;;20.95;5.95;;;;;;;;;;6313081;28;20042;-82
2023/09/24 03:54:53;;;;;;;16.98;6.13;;;;;;;;;;6271518;28;20135;-82
2023/09/24 03:57:56;;;;;;;15.98;4.88;;;;;;;;;;6295268;28;20123;-83
2023/09/24 04:00:58;;;;;;;14.95;5.38;;;;;;;;;;6274963;28;20524;-82
2023/09/24 04:04:03;;;;;;;13.20;4.93;;;;;;;;;;6242402;28;20048;-82
2023/09/24 04:07:06;;;;;;;12.55;6.65;;;;;;;;;;6318050;28;20032;-82
2023/09/24 04:10:09;;;;;;;11.68;4.78;;;;;;;;;;6309578;28;20047;-74
2023/09/24 04:13:12;;;;;;;12.52;5.18;;;;;;;;;;6332040;28;20048;-74
2023/09/24 04:16:15;;;;;;;18.15;5.20;;;;;;;;;;6320582;28;20131;-73
2023/09/24 04:19:19;;;;;;;16.10;5.43;;;;;;;;;;6332174;28;20449;-72
2023/09/24 04:22:22;;;;;;;10.68;4.55;;;;;;;;;;6306157;28;20055;-81
2023/09/24 04:25:26;;;;;;;15.38;6.07;;;;;;;;;;6290163;28;20060;-80
2023/09/24 04:28:28;;;;;;;12.55;4.45;;;;;;;;;;6283820;28;20045;-80
2023/09/24 04:31:30;;;;;;;14.07;5.13;;;;;;;;;;6276434;28;20032;-81
2023/09/24 04:34:33;;;;;;;12.20;4.82;;;;;;;;;;6268288;28;20055;-81
2023/09/24 04:37:36;;;;;;;13.60;5.70;;;;;;;;;;6279697;28;20043;-81
2023/09/24 04:40:38;;;;;;;14.73;5.18;;;;;;;;;;6281184;28;20050;-81
2023/09/24 04:43:42;;;;;;;12.27;4.70;;;;;;;;;;6283869;28;20857;-79
2023/09/24 04:46:45;;;;;;;15.25;5.30;;;;;;;;;;6305719;28;20048;-79
2023/09/24 04:49:47;;;;;;;12.90;5.03;;;;;;;;;;6307721;28;20048;-80
2023/09/24 04:52:51;;;;;;;12.98;4.30;;;;;;;;;;6278978;28;20076;-80
2023/09/24 04:55:54;;;;;;;;;;;;;;;;;;6315762;28;20097;-79
2023/09/24 04:58:56;;;;;;;12.32;5.00;;;;;;;;;;6271146;28;20062;-79
2023/09/24 05:01:59;;;;;;;14.80;4.57;;;;;;;;;;6296643;28;20436;-79
2023/09/24 05:05:03;;;;;;;16.10;6.22;;;;;;;;;;6314497;28;20051;-79
2023/09/24 05:08:05;;;;;;;15.85;4.95;;;;;;;;;;6297428;28;20276;-79
2023/09/24 05:11:11;;;;;;;16.50;5.20;;;;;;;;;;6301986;28;20555;-79
2023/09/24 05:14:17;;;;;;;12.32;5.00;;;;;;;;;;6295727;28;20100;-79
2023/09/24 05:17:20;;;;;;;17.38;5.78;;;;;;;;;;6274242;28;20179;-78
2023/09/24 05:20:24;;;;;;;17.30;5.43;;;;;;;;;;6289889;28;20067;-79
2023/09/24 05:23:28;;;;;;;16.95;5.32;;;;;;;;;;6277571;28;20069;-79
2023/09/24 05:26:30;;;;;;;13.95;5.63;;;;;;;;;;6269747;28;20032;-79
2023/09/24 05:29:34;;;;;;;15.77;5.45;;;;;;;;;;6298895;28;20040;-78
2023/09/24 05:32:37;;;;;;;10.88;6.00;;;;;;;;;;6299596;28;20050;-79
2023/09/24 05:35:41;;;;;;;14.10;5.43;;;;;;;;;;6282846;28;20044;-79
2023/09/24 05:38:44;;;;;;;17.42;5.35;;;;;;;;;;6283723;28;20051;-79
2023/09/24 05:41:48;;;;;;;19.50;5.72;;;;;;;;;;6294794;28;20044;-78
2023/09/24 05:44:51;;;;;;;18.15;7.10;;;;;;;;;;6296153;28;20032;-78
2023/09/24 05:48:01;;;;;;;16.67;7.40;;;;;;;;;;6297994;28;20499;-80
2023/09/24 05:51:04;;;;;;;;;;;;;;;;;;6316140;28;20857;-79
2023/09/24 05:54:07;;;;;;;22.38;7.80;;;;;;;;;;6297196;28;19932;-80
2023/09/24 05:57:10;;;;;;;18.50;5.82;;;;;;;;;;6284445;28;20647;-79
2023/09/24 06:00:13;;;;;;;17.98;6.30;;;;;;;;;;6297956;28;20803;-79
2023/09/24 06:03:16;;;;;;;17.45;6.05;;;;;;;;;;6310649;28;20539;-80
2023/09/24 06:06:22;;;;;;;;;;;;;;;;;;6310923;28;20056;-79
2023/09/24 06:09:28;;;;;;;18.70;6.10;;;;;;;;;;6268842;28;20007;-79
2023/09/24 06:12:31;;;;;;;16.23;5.28;;;;;;;;;;6262592;28;20047;-79
2023/09/24 06:15:34;;;;;;;13.93;5.15;;;;;;;;;;6276778;28;20072;-80
2023/09/24 06:18:36;;;;;;;14.15;5.55;;;;;;;;;;6314301;28;20048;-79
2023/09/24 06:21:42;;;;;;;17.05;6.07;;;;;;;;;;6313390;28;20178;-79
2023/09/24 06:24:44;;;;;;;12.75;4.75;;;;;;;;;;6292314;28;20545;-80
2023/09/24 06:27:46;;;;;;;14.65;5.05;;;;;;;;;;6278524;28;20059;-80
2023/09/24 06:30:58;;;;;;;17.60;5.25;;;;;;;;;;6261888;28;20082;-80
2023/09/24 06:34:03;;;;;;;17.52;5.57;;;;;;;;;;6282093;28;20059;-80
2023/09/24 06:37:05;;;;;;;13.75;4.55;;;;;;;;;;6280869;28;20048;-79
2023/09/24 06:40:09;;;;;;;13.65;5.18;;;;;;;;;;6265889;28;20492;-80
2023/09/24 06:43:13;;;;;;;16.98;5.30;;;;;;;;;;6297179;28;20044;-75
2023/09/24 06:46:18;;;;;;;15.82;5.13;;;;;;;;;;6285501;28;20052;-78
2023/09/24 06:49:22;;;;;;;12.88;4.25;;;;;;;;;;6314606;28;20063;-79
2023/09/24 06:52:32;;;;;;;12.50;5.25;;;;;;;;;;6309442;28;20048;-79
2023/09/24 06:55:40;;;;;;;14.18;5.10;;;;;;;;;;6294199;28;20048;-79
2023/09/24 06:58:42;;;;;;;15.23;5.07;;;;;;;;;;6287233;28;20501;-79
2023/09/24 07:01:47;;;;;;;21.02;5.82;;;;;;;;;;6290733;28;20127;-79
2023/09/24 07:04:52;;;;;;;15.00;4.72;;;;;;;;;;6284571;28;20043;-79
2023/09/24 07:07:56;;;;;;;15.40;6.45;;;;;;;;;;6305370;28;20079;-78
2023/09/24 07:11:28;;;;;;;11.65;4.85;;;;;;;;;;6300942;28;20048;-85
2023/09/24 07:14:30;;;;;;;17.10;5.15;;;;;;;;;;6295914;28;20044;-83
2023/09/24 07:17:33;;;;;;;17.17;5.65;;;;;;;;;;6311752;28;20304;-84
2023/09/24 07:20:35;;;;;;;16.45;5.20;;;;;;;;;;6279174;28;20176;-81
2023/09/24 07:23:40;;;;;;;17.92;5.07;;;;;;;;;;6299912;28;20044;-76
2023/09/24 07:26:44;;;;;;;11.57;4.63;;;;;;;;;;6291493;28;20040;-80
2023/09/24 07:29:48;;;;;;;10.20;4.70;;;;;;;;;;6309308;28;20782;-66
2023/09/24 07:32:50;;;;;;;11.25;4.65;;;;;;;;;;6309816;28;20051;-67
2023/09/24 07:35:52;;;;;;;12.38;4.70;;;;;;;;;;6293942;28;20048;-65
2023/09/24 07:38:55;;;;;;;14.20;4.60;;;;;;;;;;6308000;28;20052;-64
2023/09/24 07:41:57;;;;;;;12.85;5.55;;;;;;;;;;6307348;28;20444;-82
2023/09/24 07:44:59;;;;;;;13.95;4.70;;;;;;;;;;6285570;28;20055;-82
2023/09/24 07:48:08;;;;;;;12.82;5.45;;;;;;;;;;6312385;28;20031;-81
2023/09/24 07:51:12;;;;;;;11.95;4.35;;;;;;;;;;6280387;28;20055;-82
2023/09/24 07:54:14;;;;;;;17.25;4.22;;;;;;;;;;6324935;28;20071;-79
2023/09/24 07:57:19;;;;;;;14.95;4.50;;;;;;;;;;6274789;28;20103;-82
2023/09/24 08:00:21;;;;;;;;;;;;;;;;;;6302114;28;20037;-74
2023/09/24 08:03:23;;;;;;;11.27;5.00;;;;;;;;;;6323176;28;20474;-73
2023/09/24 08:06:28;;;;;;;12.43;4.15;;;;;;;;;;6294330;28;20039;-69
2023/09/24 08:09:30;;;;;;;14.93;4.82;;;;;;;;;;6310511;28;20039;-69
2023/09/24 08:12:32;;;;;;;10.32;4.43;;;;;;;;;;6309469;28;20040;-69
2023/09/24 08:15:34;;;;;;;12.82;4.68;;;;;;;;;;6301846;28;20587;-69
2023/09/24 08:18:36;;;;;;;10.45;4.63;;;;;;;;;;6307944;28;20082;-69
2023/09/24 08:21:39;;;;;;;11.75;5.45;;;;;;;;;;6304945;28;20609;-70
2023/09/24 08:24:42;;;;;;;14.00;4.72;;;;;;;;;;6309945;28;20568;-69
2023/09/24 08:27:44;;;;;;;14.75;5.70;;;;;;;;;;6304993;28;20043;-70
2023/09/24 08:30:49;;;;;;;12.82;3.65;;;;;;;;;;6298421;28;20201;-70
2023/09/24 08:33:51;;;;;;;11.30;4.10;;;;;;;;;;6309357;28;20044;-69
2023/09/24 08:36:53;;;;;;;10.23;4.07;;;;;;;;;;6310770;28;20047;-69
2023/09/24 08:39:55;;;;;;;16.83;4.80;;;;;;;;;;6310728;28;20124;-70
2023/09/24 08:42:58;;;;;;;14.18;4.20;;;;;;;;;;6310989;28;20048;-70
2023/09/24 08:46:02;;;;;;;15.98;4.60;;;;;;;;;;6294170;28;20044;-82
2023/09/24 08:49:08;;;;;;;14.15;3.90;;;;;;;;;;6277485;28;20619;-81
2023/09/24 08:52:11;;;;;;;18.92;4.28;;;;;;;;;;6296877;28;20628;-80
2023/09/24 08:55:14;;;;;;;12.45;3.78;;;;;;;;;;6307852;28;20743;-79
2023/09/24 08:58:19;;;;;;;8.45;4.32;;;;;;;;;;6261014;28;20547;-80
2023/09/24 09:01:22;;;;;;;13.32;4.55;;;;;;;;;;6293215;28;20044;-80
2023/09/24 09:04:24;;;;;;;14.35;4.22;;;;;;;;;;6305229;28;20040;-79
2023/09/24 09:07:27;;;;;;;15.10;4.00;;;;;;;;;;6275919;28;20044;-79
2023/09/24 09:10:33;;;;;;;15.75;4.65;;;;;;;;;;6311469;28;20044;-79
2023/09/24 09:13:43;;;;;;;38.30;20.30;;;;;;;;;;6293025;28;20075;-79
2023/09/24 09:16:57;;;;;;;26.08;11.18;;;;;;;;;;6268068;28;20044;-80
2023/09/24 09:20:01;;;;;;;;;;;;;;;;;;6288351;28;20043;-80
2023/09/24 09:23:04;;;;;;;16.15;5.80;;;;;;;;;;6291147;28;19931;-80
2023/09/24 09:26:08;;;;;;;26.33;6.43;;;;;;;;;;6290060;28;20124;-79
2023/09/24 09:29:20;;;;;;;14.27;7.18;;;;;;;;;;6306692;28;20193;-80
2023/09/24 09:32:36;;;;;;;14.90;7.18;;;;;;;;;;6275829;28;20062;-80
2023/09/24 09:35:40;;;;;;;13.80;6.38;;;;;;;;;;6276209;28;20136;-79
2023/09/24 09:38:42;;;;;;;15.50;6.95;;;;;;;;;;6271176;28;20075;-79
2023/09/24 09:41:47;;;;;;;10.23;3.92;;;;;;;;;;6276348;28;20096;-79
2023/09/24 09:44:51;;;;;;;12.52;4.38;;;;;;;;;;6311007;28;20581;-79
2023/09/24 09:48:03;;;;;;;19.77;8.23;;;;;;;;;;6274075;28;20041;-79
2023/09/24 09:51:07;;;;;;;13.20;4.20;;;;;;;;;;6247875;28;20092;-79
2023/09/24 09:54:11;;;;;;;20.23;4.82;;;;;;;;;;6299032;28;20056;-79
2023/09/24 09:57:14;;;;;;;17.45;4.88;;;;;;;;;;6298921;28;20040;-79
2023/09/24 10:00:17;;;;;;;13.10;3.95;;;;;;;;;;6263165;28;20104;-79
2023/09/24 10:03:25;;;;;;;11.90;3.78;;;;;;;;;;6279198;28;20052;-79
2023/09/24 10:06:33;;;;;;;16.05;4.47;;;;;;;;;;6315067;28;20066;-79
2023/09/24 10:09:35;;;;;;;12.95;4.00;;;;;;;;;;6263421;28;20062;-79
2023/09/24 10:12:39;;;;;;;14.80;5.15;;;;;;;;;;6271099;28;20051;-79
2023/09/24 10:15:43;;;;;;;15.45;4.25;;;;;;;;;;6313740;28;20046;-80
2023/09/24 10:18:55;;;;;;;16.42;3.88;;;;;;;;;;6277609;28;20043;-75
2023/09/24 10:22:33;;;;;;;13.02;4.28;;;;;;;;;;6301194;28;20476;-74
2023/09/24 10:25:37;;;;;;;10.02;4.35;;;;;;;;;;6267216;28;21370;-75
2023/09/24 10:28:50;;;;;;;22.30;5.15;;;;;;;;;;6277460;28;20488;-75
2023/09/24 10:32:06;;;;;;;15.60;4.13;;;;;;;;;;6281605;28;20036;-66
2023/09/24 10:35:09;;;;;;;17.40;4.13;;;;;;;;;;6307989;28;20059;-67
2023/09/24 10:38:11;;;;;;;21.42;5.85;;;;;;;;;;6309764;28;20064;-66
2023/09/24 10:41:16;;;;;;;13.35;4.10;;;;;;;;;;6298697;28;20074;-67
2023/09/24 10:44:25;;;;;;;10.77;3.83;;;;;;;;;;6312331;28;20588;-66
2023/09/24 10:47:30;;;;;;;10.20;3.92;;;;;;;;;;6307100;28;20048;-67
2023/09/24 10:50:32;;;;;;;20.38;4.25;;;;;;;;;;6311743;28;20056;-66
2023/09/24 10:53:35;;;;;;;14.40;3.45;;;;;;;;;;6307105;28;20047;-67
2023/09/24 10:56:37;;;;;;;14.52;3.72;;;;;;;;;;6310568;28;20040;-67
2023/09/24 10:59:40;;;;;;;16.38;4.05;;;;;;;;;;6309963;28;20056;-67
2023/09/24 11:02:42;;;;;;;14.45;4.57;;;;;;;;;;6304823;28;20040;-67
2023/09/24 11:05:48;;;;;;;16.15;3.60;;;;;;;;;;6312757;28;20142;-67
2023/09/24 11:08:51;;;;;;;10.27;4.05;;;;;;;;;;6312729;28;20040;-67
2023/09/24 11:11:53;;;;;;;9.98;3.85;;;;;;;;;;6301371;28;20142;-67
2023/09/24 11:14:56;;;;;;;14.57;3.85;;;;;;;;;;6318680;28;20052;-67
2023/09/24 11:18:16;;;;;;;11.27;3.47;;;;;;;;;;6301913;28;20097;-67
2023/09/24 11:21:19;;;;;;;13.00;3.95;;;;;;;;;;6295026;28;20051;-67
2023/09/24 11:24:22;;;;;;;17.00;3.85;;;;;;;;;;6315613;28;20108;-67
2023/09/24 11:27:24;;;;;;;18.83;4.10;;;;;;;;;;6320339;28;20184;-67
2023/09/24 11:30:49;;;;;;;16.98;3.75;;;;;;;;;;6294634;28;20512;-67
2023/09/24 11:33:55;;;;;;;11.90;4.05;;;;;;;;;;6311337;28;20764;-67
2023/09/24 11:36:58;;;;;;;10.25;4.28;;;;;;;;;;6310171;28;20036;-67
2023/09/24 11:40:01;;;;;;;14.98;4.72;;;;;;;;;;6316207;28;20059;-67
2023/09/24 11:43:10;;;;;;;16.52;3.92;;;;;;;;;;6314010;28;20625;-67
2023/09/24 11:46:25;;;;;;;14.35;4.13;;;;;;;;;;6325981;28;20048;-68
2023/09/24 11:49:27;;;;;;;15.02;3.75;;;;;;;;;;6320969;28;20040;-67
2023/09/24 11:52:29;;;;;;;21.70;4.32;;;;;;;;;;6322929;28;20040;-67
2023/09/24 11:55:31;;;;;;;15.65;3.60;;;;;;;;;;6319448;28;20067;-67
2023/09/24 11:58:33;;;;;;;10.93;3.47;;;;;;;;;;6279951;28;20039;-67
2023/09/24 12:01:35;;;;;;;14.68;4.63;;;;;;;;;;6308418;28;20723;-67
2023/09/24 12:04:37;;;;;;;13.98;4.88;;;;;;;;;;6310336;28;20538;-67
2023/09/24 12:07:39;;;;;;;17.20;4.07;;;;;;;;;;6313942;28;20530;-65
2023/09/24 12:10:43;;;;;;;10.15;3.60;;;;;;;;;;6315930;28;20100;-76
2023/09/24 12:13:45;;;;;;;10.32;4.40;;;;;;;;;;6292850;28;20052;-75
2023/09/24 12:16:48;;;;;;;9.65;3.95;;;;;;;;;;6306558;28;20047;-73
2023/09/24 12:19:52;;;;;;;11.65;3.58;;;;;;;;;;6325152;28;20046;-73
2023/09/24 12:22:55;;;;;;;14.52;3.83;;;;;;;;;;6315074;28;20040;-75
2023/09/24 12:25:57;;;;;;;19.48;4.57;;;;;;;;;;6283265;28;20051;-75
2023/09/24 12:29:00;;;;;;;13.75;3.95;;;;;;;;;;6303050;28;20348;-76
2023/09/24 12:32:02;;;;;;;13.73;3.75;;;;;;;;;;6323498;28;20047;-75
2023/09/24 12:35:07;;;;;;;10.73;3.67;;;;;;;;;;6290036;28;20055;-75
2023/09/24 12:38:12;;;;;;;12.15;3.35;;;;;;;;;;6324137;28;20816;-75
2023/09/24 12:41:15;;;;;;;10.60;3.97;;;;;;;;;;6333538;28;20081;-77
2023/09/24 12:44:18;;;;;;;13.00;4.10;;;;;;;;;;6305370;28;20137;-76
2023/09/24 12:47:20;;;;;;;12.48;4.05;;;;;;;;;;6323601;28;20105;-75
2023/09/24 12:50:23;;;;;;;10.75;3.60;;;;;;;;;;6303659;28;20058;-75
2023/09/24 12:53:25;;;;;;;12.73;3.50;;;;;;;;;;6309719;28;20139;-74
2023/09/24 12:56:28;;;;;;;14.50;5.47;;;;;;;;;;6305137;28;20841;-76
2023/09/24 12:59:31;;;;;;;9.27;3.50;;;;;;;;;;6336254;28;20043;-74
2023/09/24 13:02:34;;;;;;;11.73;4.40;;;;;;;;;;6309894;28;20059;-75
2023/09/24 13:05:37;;;;;;;18.35;4.13;;;;;;;;;;6317929;28;20043;-74
2023/09/24 13:08:39;;;;;;;13.13;4.03;;;;;;;;;;6314343;28;20067;-75
2023/09/24 13:11:42;;;;;;;16.67;3.65;;;;;;;;;;6301834;28;20058;-75
2023/09/24 13:14:44;;;;;;;13.57;4.15;;;;;;;;;;6300920;28;20101;-75
2023/09/24 13:17:47;;;;;;;16.15;5.15;;;;;;;;;;6300409;28;20041;-75
2023/09/24 13:20:50;;;;;;;16.25;4.22;;;;;;;;;;6288016;28;20063;-80
2023/09/24 13:23:52;;;;;;;19.02;4.85;;;;;;;;;;6312191;28;20044;-80
2023/09/24 13:26:55;;;;;;;13.25;4.45;;;;;;;;;;6283964;28;20048;-75
2023/09/24 13:29:59;;;;;;;15.77;5.55;;;;;;;;;;6283060;28;20036;-79
2023/09/24 13:33:01;;;;;;;15.18;4.28;;;;;;;;;;6301404;28;20094;-71
2023/09/24 13:36:04;;;;;;;10.65;4.10;;;;;;;;;;6312619;28;20035;-77
2023/09/24 13:39:10;;;;;;;10.60;3.58;;;;;;;;;;6302746;28;20032;-78
2023/09/24 13:42:12;;;;;;;14.45;3.83;;;;;;;;;;6307922;28;20117;-76
2023/09/24 13:45:21;;;;;;;16.95;6.40;;;;;;;;;;6325797;28;20043;-78
2023/09/24 13:48:23;;;;;;;16.48;4.43;;;;;;;;;;6296648;28;20429;-79
2023/09/24 13:51:26;;;;;;;16.80;5.40;;;;;;;;;;6297269;28;20040;-80
2023/09/24 13:54:33;;;;;;;12.63;3.92;;;;;;;;;;6301896;28;20036;-79
2023/09/24 13:57:36;;;;;;;14.68;4.38;;;;;;;;;;6277471;28;20636;-80
2023/09/24 14:00:51;;;;;;;15.60;4.10;;;;;;;;;;6291539;28;20048;-79
2023/09/24 14:03:55;;;;;;;10.70;4.00;;;;;;;;;;6303210;28;20581;-80
2023/09/24 14:06:57;;;;;;;15.10;4.50;;;;;;;;;;6295601;28;20142;-75
2023/09/24 14:13:21;;;;;;;15.52;4.50;;;;;;;;;;6301275;28;20055;-74
2023/09/24 14:16:23;;;;;;;10.20;4.10;;;;;;;;;;6321379;28;20552;-75
2023/09/24 14:19:25;;;;;;;16.70;6.35;;;;;;;;;;6305364;28;20043;-72
2023/09/24 14:22:27;;;;;;;18.23;4.55;;;;;;;;;;6298320;28;20051;-71
2023/09/24 14:25:30;;;;;;;15.02;4.85;;;;;;;;;;6310824;28;20076;-63
2023/09/24 14:28:32;;;;;;;18.38;6.55;;;;;;;;;;6313456;28;20692;-63
2023/09/24 14:31:34;;;;;;;14.43;5.20;;;;;;;;;;6310475;28;20044;-63
2023/09/24 14:34:36;;;;;;;13.65;5.97;;;;;;;;;;6299315;28;20130;-63
2023/09/24 14:37:38;;;;;;;11.63;5.15;;;;;;;;;;6313750;28;20389;-63
2023/09/24 14:40:40;;;;;;;15.75;5.05;;;;;;;;;;6307866;28;20056;-63
2023/09/24 14:43:42;;;;;;;16.10;5.15;;;;;;;;;;6312896;28;20047;-63
2023/09/24 14:46:44;;;;;;;15.70;5.07;;;;;;;;;;6312894;28;20615;-63
2023/09/24 14:49:47;;;;;;;14.18;3.97;;;;;;;;;;6306828;28;20048;-64
2023/09/24 14:52:49;;;;;;;16.67;6.05;;;;;;;;;;6282373;28;20181;-75
2023/09/24 14:55:55;;;;;;;26.98;7.82;;;;;;;;;;6275747;28;20429;-74
2023/09/24 14:58:57;;;;;;;17.05;5.97;;;;;;;;;;6294223;28;20425;-74
2023/09/24 15:01:59;;;;;;;14.90;6.38;;;;;;;;;;6281719;28;20053;-68
2023/09/24 15:05:02;;;;;;;13.00;4.15;;;;;;;;;;6311915;28;20100;-68
2023/09/24 15:08:08;;;;;;;20.55;5.10;;;;;;;;;;6318087;28;20225;-70
2023/09/24 15:11:10;;;;;;;18.65;4.65;;;;;;;;;;6314884;28;20063;-69
2023/09/24 15:14:12;;;;;;;12.57;6.10;;;;;;;;;;6290032;28;20611;-68
2023/09/24 15:17:14;;;;;;;17.52;5.90;;;;;;;;;;6291007;28;20040;-68
2023/09/24 15:20:16;;;;;;;18.65;5.05;;;;;;;;;;6296897;28;20044;-68
2023/09/24 15:23:20;;;;;;;21.50;5.95;;;;;;;;;;6300161;28;20489;-68
2023/09/24 15:26:22;;;;;;;15.80;6.25;;;;;;;;;;6311234;28;20032;-68
2023/09/24 15:29:24;;;;;;;18.90;6.13;;;;;;;;;;6296508;28;20125;-68
2023/09/24 15:32:29;;;;;;;;;;;;;;;;;;6312064;28;20749;-68
2023/09/24 15:35:34;;;;;;;17.13;5.28;;;;;;;;;;6293427;28;19924;-79
2023/09/24 15:38:36;;;;;;;14.02;5.30;;;;;;;;;;6290946;28;20528;-78
2023/09/24 15:41:39;;;;;;;16.05;5.32;;;;;;;;;;6295806;28;20067;-79
2023/09/24 15:44:41;;;;;;;18.35;5.63;;;;;;;;;;6283896;28;20051;-77
2023/09/24 15:47:45;;;;;;;14.80;4.72;;;;;;;;;;6327530;28;20048;-79
2023/09/24 15:50:48;;;;;;;14.07;5.55;;;;;;;;;;6288952;28;20502;-77
2023/09/24 15:53:52;;;;;;;17.42;6.18;;;;;;;;;;6301690;28;20051;-78
2023/09/24 15:56:54;;;;;;;12.25;4.80;;;;;;;;;;6279975;28;20040;-78
2023/09/24 15:59:58;;;;;;;14.02;5.90;;;;;;;;;;6289073;28;20048;-78
2023/09/24 16:03:02;;;;;;;12.70;4.82;;;;;;;;;;6281008;28;20048;-77
2023/09/24 16:06:04;;;;;;;16.10;6.07;;;;;;;;;;6310196;28;20048;-77
2023/09/24 16:09:39;;;;;;;13.23;5.60;;;;;;;;;;6341799;28;20047;-76
2023/09/24 16:12:43;;;;;;;16.42;5.75;;;;;;;;;;6315339;28;20040;-78
2023/09/24 16:15:46;;;;;;;12.98;6.45;;;;;;;;;;6324162;28;20044;-77
2023/09/24 16:18:52;;;;;;;12.70;6.00;;;;;;;;;;6291817;28;20036;-77
2023/09/24 16:21:55;;;;;;;10.63;6.40;;;;;;;;;;6290105;28;20047;-78
2023/09/24 16:24:57;;;;;;;13.93;5.88;;;;;;;;;;6326062;28;20129;-78
2023/09/24 16:28:00;;;;;;;20.38;6.95;;;;;;;;;;6305438;28;20066;-77
2023/09/24 16:31:04;;;;;;;14.73;5.88;;;;;;;;;;6333825;28;20044;-79
2023/09/24 16:34:06;;;;;;;13.88;6.03;;;;;;;;;;6297184;28;20111;-78
2023/09/24 16:37:08;;;;;;;16.65;7.43;;;;;;;;;;6323019;28;20104;-78
2023/09/24 16:40:11;;;;;;;14.32;6.40;;;;;;;;;;6331162;28;20126;-78
2023/09/24 16:43:13;;;;;;;17.00;5.28;;;;;;;;;;6322856;28;20051;-78
2023/09/24 16:46:17;;;;;;;14.88;6.50;;;;;;;;;;6275515;28;20085;-78
2023/09/24 16:49:24;;;;;;;19.67;6.43;;;;;;;;;;6319010;28;20063;-78
2023/09/24 16:52:27;;;;;;;15.10;5.85;;;;;;;;;;6324167;28;20104;-77
2023/09/24 16:55:37;;;;;;;17.40;6.28;;;;;;;;;;6299004;28;20036;-78
2023/09/24 16:58:41;;;;;;;16.08;5.78;;;;;;;;;;6294161;28;20048;-78
2023/09/24 17:01:43;;;;;;;14.35;5.88;;;;;;;;;;6338989;28;20487;-78
2023/09/24 17:04:48;;;;;;;20.85;5.97;;;;;;;;;;6304186;28;20111;-76
2023/09/24 17:07:54;;;;;;;18.23;6.85;;;;;;;;;;6307815;28;20511;-78
2023/09/24 17:10:58;;;;;;;15.80;5.68;;;;;;;;;;6303355;28;20036;-78
2023/09/24 17:14:02;;;;;;;15.40;6.78;;;;;;;;;;6280154;28;20052;-78
2023/09/24 17:17:07;;;;;;;14.77;6.15;;;;;;;;;;6312607;28;20044;-77
2023/09/24 17:20:10;;;;;;;26.75;7.97;;;;;;;;;;6301853;28;20040;-76
2023/09/24 17:23:14;;;;;;;18.95;6.40;;;;;;;;;;6317583;28;20043;-63
2023/09/24 17:26:17;;;;;;;17.20;7.65;;;;;;;;;;6319339;28;20438;-78
2023/09/24 17:29:21;;;;;;;17.45;8.02;;;;;;;;;;6256642;28;20044;-64
2023/09/24 17:32:23;;;;;;;15.52;6.22;;;;;;;;;;6300133;28;20072;-65
2023/09/24 17:35:25;;;;;;;12.85;6.13;;;;;;;;;;6285824;28;20047;-64
2023/09/24 17:38:27;;;;;;;19.48;7.93;;;;;;;;;;6302059;28;20139;-64
2023/09/24 17:41:29;;;;;;;18.42;8.45;;;;;;;;;;6291645;28;20900;-64
2023/09/24 17:44:32;;;;;;;13.45;7.70;;;;;;;;;;6294387;28;20055;-64
2023/09/24 17:47:35;;;;;;;17.63;7.93;;;;;;;;;;6313281;28;20048;-64
2023/09/24 17:50:38;;;;;;;13.15;7.25;;;;;;;;;;6308875;28;20436;-67
2023/09/24 17:53:41;;;;;;;14.90;7.45;;;;;;;;;;6303930;28;20048;-67
2023/09/24 17:56:45;;;;;;;;;;;;;;;;;;6309216;28;20048;-70
2023/09/24 17:59:47;;;;;;;17.08;7.32;;;;;;;;;;6292172;28;19930;-76
2023/09/24 18:02:51;;;;;;;18.30;8.18;;;;;;;;;;6294960;28;20531;-75
2023/09/24 18:05:54;;;;;;;14.50;7.85;;;;;;;;;;6305705;28;20044;-76
2023/09/24 18:08:56;;;;;;;17.02;7.13;;;;;;;;;;6271955;28;20051;-76
2023/09/24 18:11:59;;;;;;;20.30;9.18;;;;;;;;;;6282813;28;20067;-75
2023/09/24 18:15:02;;;;;;;21.48;8.57;;;;;;;;;;6296700;28;20429;-75
2023/09/24 18:18:06;;;;;;;16.65;6.82;;;;;;;;;;6292875;28;20482;-72